Language selection

My Weather Profile Weather Topics  | 

Western Lake Superior: Past 24 Hour Conditions

 

Sault Ste. Marie Airport

11:00 AM EDT 22 September 2021
Disclaimer

This table is a summary of hourly weather conditions for the past 24 hours.
Please note that these observations might not always be representative of weather conditions over their associated marine area.

Date / Time
(EDT)
Wind(knots) Conditions Visibility(km) Pressure(kPa) Air tempC) Relative humidity(%) Dew pointC)
22 September 2021
11:00 N 7 Mostly Cloudy 32 102.5 11 71 6
10:00 N 8 Mostly Cloudy 32 102.4 10 74 6
9:00 N 2 Mostly Cloudy 32 102.5 9 82 6
8:00 N 4 Mostly Cloudy 32 102.4 8 85 5
7:00 NNE 9 Mostly Cloudy 32 102.3 8 79 5
6:00 NNE 8 Mostly Cloudy 32 102.3 9 80 5
5:00 N 7 Mostly Cloudy 32 102.3 9 83 7
4:00 NNE 5 Mostly Cloudy 32 102.3 10 83 7
3:00 N 5 Mostly Cloudy 32 102.3 10 87 8
2:00 NE 7 Mostly Cloudy 32 102.3 10 85 8
1:00 N 4 Mostly Cloudy 32 102.4 10 85 8
0:00 NNE 2 Mostly Cloudy 32 102.3 10 82 7
21 September 2021
23:00 NNE 5 Mostly Cloudy 32 102.3 12 77 8
22:00 N 10 gust 16 Mostly Cloudy 32 102.2 13 70 8
21:00 NNW 10 gust 17 Mostly Cloudy 32 102.1 13 71 8
20:00 NW 15 gust 23 Mostly Cloudy 32 102.0 14 72 9
19:00 NW 18 gust 25 Mostly Cloudy 32 101.9 14 74 10
18:00 NW 12 gust 20 Mostly Cloudy 32 101.9 15 77 11
17:00 WNW 19 gust 25 Mostly Cloudy 32 101.8 15 75 11
16:00 NW 19 gust 26 Mostly Cloudy 32 101.7 16 73 11
15:00 NW 18 gust 26 Mostly Cloudy 32 101.6 15 78 11
14:00 WNW 16 gust 24 Mostly Cloudy 32 101.5 17 75 12
13:00 WNW 17 gust 25 Mostly Cloudy 32 101.4 17 71 12
12:00 WNW 18 gust 25 Mostly Cloudy 32 101.3 16 76 12
11:00 WNW 17 gust 23 Mostly Cloudy 32 101.2 16 83 13

Zoom-in to make a selection

Map of Great Lakes - Lake Superior marine weather areas Mid Superior - 45001 East Superior - 45004 West Superior - 45006 Slate Island - 45136 Lake Of the Woods - 45148 Kenora Airport Royal Island Armstrong Airport Caribou Island Marathon Airport Pukaskwa National Park Thunder Bay Airport Welcome Island Little Flatland Island Sault Ste. Marie Airport Wawa Airport
Legend:
buoy Buoy
land station Land Station

Great Lakes - Lake Superior Area

Another Region

What we are doing

Date modified: